sensor_id;sensor_type;location;lat;lon;timestamp;P1;durP1;ratioP1;P2;durP2;ratioP2
11771;SDS011;12556;55.748;13.194;2022-10-16T00:02:23;19.17;;;15.10;;
11771;SDS011;12556;55.748;13.194;2022-10-16T00:04:49;19.47;;;15.90;;
11771;SDS011;12556;55.748;13.194;2022-10-16T00:07:16;18.27;;;15.27;;
11771;SDS011;12556;55.748;13.194;2022-10-16T00:09:43;18.73;;;14.77;;
11771;SDS011;12556;55.748;13.194;2022-10-16T00:12:11;18.00;;;15.87;;
11771;SDS011;12556;55.748;13.194;2022-10-16T00:14:40;18.57;;;14.67;;
11771;SDS011;12556;55.748;13.194;2022-10-16T00:17:09;19.67;;;15.40;;
11771;SDS011;12556;55.748;13.194;2022-10-16T00:19:36;18.00;;;14.60;;
11771;SDS011;12556;55.748;13.194;2022-10-16T00:22:02;16.87;;;14.97;;
11771;SDS011;12556;55.748;13.194;2022-10-16T00:24:29;17.40;;;14.50;;
11771;SDS011;12556;55.748;13.194;2022-10-16T00:26:56;18.17;;;13.97;;
11771;SDS011;12556;55.748;13.194;2022-10-16T00:29:23;18.23;;;14.07;;
11771;SDS011;12556;55.748;13.194;2022-10-16T00:31:51;16.57;;;13.63;;
11771;SDS011;12556;55.748;13.194;2022-10-16T00:34:18;17.63;;;13.43;;
11771;SDS011;12556;55.748;13.194;2022-10-16T00:36:45;19.60;;;14.70;;
11771;SDS011;12556;55.748;13.194;2022-10-16T00:39:12;17.53;;;15.00;;
11771;SDS011;12556;55.748;13.194;2022-10-16T00:41:39;18.87;;;14.20;;
11771;SDS011;12556;55.748;13.194;2022-10-16T00:47:09;20.13;;;14.50;;
11771;SDS011;12556;55.748;13.194;2022-10-16T00:49:38;18.03;;;14.07;;
11771;SDS011;12556;55.748;13.194;2022-10-16T00:52:06;17.07;;;13.67;;
11771;SDS011;12556;55.748;13.194;2022-10-16T00:54:33;16.73;;;14.00;;
11771;SDS011;12556;55.748;13.194;2022-10-16T00:57:01;16.53;;;13.40;;
11771;SDS011;12556;55.748;13.194;2022-10-16T00:59:30;17.67;;;13.37;;
11771;SDS011;12556;55.748;13.194;2022-10-16T01:01:59;20.77;;;13.63;;
11771;SDS011;12556;55.748;13.194;2022-10-16T01:04:29;18.23;;;14.20;;
11771;SDS011;12556;55.748;13.194;2022-10-16T01:07:02;19.73;;;13.60;;
11771;SDS011;12556;55.748;13.194;2022-10-16T01:09:37;18.63;;;13.23;;
11771;SDS011;12556;55.748;13.194;2022-10-16T01:12:20;15.57;;;13.50;;
11771;SDS011;12556;55.748;13.194;2022-10-16T01:15:06;17.53;;;13.87;;
11771;SDS011;12556;55.748;13.194;2022-10-16T01:17:39;16.03;;;13.27;;
11771;SDS011;12556;55.748;13.194;2022-10-16T01:20:13;17.10;;;12.83;;
11771;SDS011;12556;55.748;13.194;2022-10-16T01:22:55;21.20;;;13.73;;
11771;SDS011;12556;55.748;13.194;2022-10-16T01:25:32;17.10;;;14.00;;
11771;SDS011;12556;55.748;13.194;2022-10-16T01:28:15;16.57;;;13.13;;
11771;SDS011;12556;55.748;13.194;2022-10-16T01:30:45;16.90;;;13.53;;
11771;SDS011;12556;55.748;13.194;2022-10-16T01:33:15;19.43;;;14.90;;
11771;SDS011;12556;55.748;13.194;2022-10-16T01:35:46;18.53;;;13.27;;
11771;SDS011;12556;55.748;13.194;2022-10-16T01:38:19;17.70;;;12.77;;
11771;SDS011;12556;55.748;13.194;2022-10-16T01:40:52;16.20;;;13.33;;
11771;SDS011;12556;55.748;13.194;2022-10-16T01:43:24;17.07;;;13.20;;
11771;SDS011;12556;55.748;13.194;2022-10-16T01:45:53;17.43;;;13.37;;
11771;SDS011;12556;55.748;13.194;2022-10-16T01:48:21;16.47;;;12.90;;
11771;SDS011;12556;55.748;13.194;2022-10-16T01:50:52;15.77;;;13.10;;
11771;SDS011;12556;55.748;13.194;2022-10-16T01:53:23;20.87;;;13.73;;
11771;SDS011;12556;55.748;13.194;2022-10-16T01:55:51;16.57;;;13.10;;
11771;SDS011;12556;55.748;13.194;2022-10-16T01:58:20;17.70;;;12.97;;
11771;SDS011;12556;55.748;13.194;2022-10-16T02:00:50;17.43;;;12.50;;
11771;SDS011;12556;55.748;13.194;2022-10-16T02:03:19;20.37;;;13.80;;
11771;SDS011;12556;55.748;13.194;2022-10-16T02:05:47;20.47;;;14.10;;
11771;SDS011;12556;55.748;13.194;2022-10-16T02:08:19;16.93;;;13.30;;
11771;SDS011;12556;55.748;13.194;2022-10-16T02:10:47;19.97;;;12.73;;
11771;SDS011;12556;55.748;13.194;2022-10-16T02:13:15;17.90;;;12.33;;
11771;SDS011;12556;55.748;13.194;2022-10-16T02:15:46;18.37;;;13.03;;
11771;SDS011;12556;55.748;13.194;2022-10-16T02:18:13;14.57;;;12.00;;
11771;SDS011;12556;55.748;13.194;2022-10-16T02:20:43;16.47;;;12.23;;
11771;SDS011;12556;55.748;13.194;2022-10-16T02:23:18;14.67;;;11.67;;
11771;SDS011;12556;55.748;13.194;2022-10-16T02:25:50;16.53;;;12.53;;
11771;SDS011;12556;55.748;13.194;2022-10-16T02:28:22;16.53;;;11.37;;
11771;SDS011;12556;55.748;13.194;2022-10-16T02:30:54;15.20;;;12.00;;
11771;SDS011;12556;55.748;13.194;2022-10-16T02:33:26;17.93;;;12.40;;
11771;SDS011;12556;55.748;13.194;2022-10-16T02:35:54;16.10;;;11.70;;
11771;SDS011;12556;55.748;13.194;2022-10-16T02:38:23;19.07;;;11.53;;
11771;SDS011;12556;55.748;13.194;2022-10-16T02:40:51;14.67;;;11.57;;
11771;SDS011;12556;55.748;13.194;2022-10-16T02:43:18;14.30;;;11.17;;
11771;SDS011;12556;55.748;13.194;2022-10-16T02:45:46;13.67;;;10.60;;
11771;SDS011;12556;55.748;13.194;2022-10-16T02:48:14;14.43;;;11.70;;
11771;SDS011;12556;55.748;13.194;2022-10-16T02:50:41;14.30;;;10.30;;
11771;SDS011;12556;55.748;13.194;2022-10-16T02:53:08;13.97;;;10.50;;
11771;SDS011;12556;55.748;13.194;2022-10-16T02:55:35;13.20;;;10.33;;
11771;SDS011;12556;55.748;13.194;2022-10-16T02:58:02;16.43;;;10.63;;
11771;SDS011;12556;55.748;13.194;2022-10-16T03:00:28;16.23;;;10.70;;
11771;SDS011;12556;55.748;13.194;2022-10-16T03:02:55;13.37;;;10.40;;
11771;SDS011;12556;55.748;13.194;2022-10-16T03:05:24;14.70;;;11.17;;
11771;SDS011;12556;55.748;13.194;2022-10-16T03:07:51;15.40;;;11.17;;
11771;SDS011;12556;55.748;13.194;2022-10-16T03:10:18;14.13;;;11.30;;
11771;SDS011;12556;55.748;13.194;2022-10-16T03:12:45;15.83;;;10.90;;
11771;SDS011;12556;55.748;13.194;2022-10-16T03:15:12;14.67;;;10.77;;
11771;SDS011;12556;55.748;13.194;2022-10-16T03:17:39;16.87;;;11.73;;
11771;SDS011;12556;55.748;13.194;2022-10-16T03:20:06;12.83;;;10.57;;
11771;SDS011;12556;55.748;13.194;2022-10-16T03:22:35;13.20;;;10.90;;
11771;SDS011;12556;55.748;13.194;2022-10-16T03:25:02;14.17;;;11.33;;
11771;SDS011;12556;55.748;13.194;2022-10-16T03:27:29;17.20;;;11.43;;
11771;SDS011;12556;55.748;13.194;2022-10-16T03:29:56;15.13;;;11.73;;
11771;SDS011;12556;55.748;13.194;2022-10-16T03:32:23;13.07;;;11.13;;
11771;SDS011;12556;55.748;13.194;2022-10-16T03:34:50;16.90;;;11.30;;
11771;SDS011;12556;55.748;13.194;2022-10-16T03:37:19;13.97;;;11.27;;
11771;SDS011;12556;55.748;13.194;2022-10-16T03:39:47;16.80;;;10.83;;
11771;SDS011;12556;55.748;13.194;2022-10-16T03:42:14;14.70;;;11.13;;
11771;SDS011;12556;55.748;13.194;2022-10-16T03:44:41;15.50;;;11.57;;
11771;SDS011;12556;55.748;13.194;2022-10-16T03:47:08;18.60;;;12.23;;
11771;SDS011;12556;55.748;13.194;2022-10-16T03:49:35;16.07;;;11.20;;
11771;SDS011;12556;55.748;13.194;2022-10-16T03:52:02;16.27;;;11.93;;
11771;SDS011;12556;55.748;13.194;2022-10-16T03:54:29;16.10;;;11.43;;
11771;SDS011;12556;55.748;13.194;2022-10-16T03:56:57;15.07;;;11.40;;
11771;SDS011;12556;55.748;13.194;2022-10-16T03:59:24;18.80;;;11.23;;
11771;SDS011;12556;55.748;13.194;2022-10-16T04:01:51;15.10;;;10.77;;
11771;SDS011;12556;55.748;13.194;2022-10-16T04:04:18;12.80;;;10.50;;
11771;SDS011;12556;55.748;13.194;2022-10-16T04:06:45;13.40;;;10.57;;
11771;SDS011;12556;55.748;13.194;2022-10-16T04:09:12;16.73;;;10.40;;
11771;SDS011;12556;55.748;13.194;2022-10-16T04:11:39;15.97;;;10.37;;
11771;SDS011;12556;55.748;13.194;2022-10-16T04:14:07;12.40;;;8.73;;
11771;SDS011;12556;55.748;13.194;2022-10-16T04:16:34;15.97;;;9.37;;
11771;SDS011;12556;55.748;13.194;2022-10-16T04:19:01;16.00;;;9.57;;
11771;SDS011;12556;55.748;13.194;2022-10-16T04:21:28;14.93;;;8.43;;
11771;SDS011;12556;55.748;13.194;2022-10-16T04:23:55;15.00;;;9.40;;
11771;SDS011;12556;55.748;13.194;2022-10-16T04:26:22;15.07;;;9.57;;
11771;SDS011;12556;55.748;13.194;2022-10-16T04:28:49;15.07;;;9.00;;
11771;SDS011;12556;55.748;13.194;2022-10-16T04:31:17;18.77;;;9.47;;
11771;SDS011;12556;55.748;13.194;2022-10-16T04:33:44;21.23;;;8.87;;
11771;SDS011;12556;55.748;13.194;2022-10-16T04:36:11;14.00;;;8.13;;
11771;SDS011;12556;55.748;13.194;2022-10-16T04:38:38;19.10;;;9.30;;
11771;SDS011;12556;55.748;13.194;2022-10-16T04:41:05;17.27;;;9.63;;
11771;SDS011;12556;55.748;13.194;2022-10-16T04:43:33;13.47;;;8.73;;
11771;SDS011;12556;55.748;13.194;2022-10-16T04:46:00;11.97;;;8.50;;
11771;SDS011;12556;55.748;13.194;2022-10-16T04:48:31;12.30;;;8.50;;
11771;SDS011;12556;55.748;13.194;2022-10-16T04:50:58;12.97;;;7.37;;
11771;SDS011;12556;55.748;13.194;2022-10-16T04:53:25;15.97;;;8.83;;
11771;SDS011;12556;55.748;13.194;2022-10-16T04:55:52;14.33;;;8.57;;
11771;SDS011;12556;55.748;13.194;2022-10-16T04:58:19;11.33;;;7.40;;
11771;SDS011;12556;55.748;13.194;2022-10-16T05:00:46;12.37;;;7.60;;
11771;SDS011;12556;55.748;13.194;2022-10-16T05:03:13;9.50;;;6.97;;
11771;SDS011;12556;55.748;13.194;2022-10-16T05:05:43;16.43;;;8.07;;
11771;SDS011;12556;55.748;13.194;2022-10-16T05:08:11;8.17;;;6.77;;
11771;SDS011;12556;55.748;13.194;2022-10-16T05:10:38;13.03;;;7.50;;
11771;SDS011;12556;55.748;13.194;2022-10-16T05:13:06;10.27;;;7.23;;
11771;SDS011;12556;55.748;13.194;2022-10-16T05:15:33;11.47;;;6.33;;
11771;SDS011;12556;55.748;13.194;2022-10-16T05:18:00;13.23;;;7.30;;
11771;SDS011;12556;55.748;13.194;2022-10-16T05:20:27;12.67;;;6.17;;
11771;SDS011;12556;55.748;13.194;2022-10-16T05:22:55;16.83;;;7.43;;
11771;SDS011;12556;55.748;13.194;2022-10-16T05:25:22;12.90;;;6.23;;
11771;SDS011;12556;55.748;13.194;2022-10-16T05:27:49;10.80;;;6.70;;
11771;SDS011;12556;55.748;13.194;2022-10-16T05:30:16;11.53;;;6.30;;
11771;SDS011;12556;55.748;13.194;2022-10-16T05:32:45;11.80;;;6.87;;
11771;SDS011;12556;55.748;13.194;2022-10-16T05:35:13;11.27;;;5.87;;
11771;SDS011;12556;55.748;13.194;2022-10-16T05:37:40;8.90;;;5.37;;
11771;SDS011;12556;55.748;13.194;2022-10-16T05:40:09;16.13;;;6.10;;
11771;SDS011;12556;55.748;13.194;2022-10-16T05:42:37;15.03;;;5.60;;
11771;SDS011;12556;55.748;13.194;2022-10-16T05:45:05;11.73;;;5.80;;
11771;SDS011;12556;55.748;13.194;2022-10-16T05:47:34;9.77;;;5.37;;
11771;SDS011;12556;55.748;13.194;2022-10-16T05:50:01;11.17;;;5.37;;
11771;SDS011;12556;55.748;13.194;2022-10-16T05:52:29;11.67;;;6.23;;
11771;SDS011;12556;55.748;13.194;2022-10-16T05:54:56;7.30;;;4.97;;
11771;SDS011;12556;55.748;13.194;2022-10-16T05:57:24;13.33;;;5.17;;
11771;SDS011;12556;55.748;13.194;2022-10-16T05:59:51;13.73;;;5.07;;
11771;SDS011;12556;55.748;13.194;2022-10-16T06:02:18;8.83;;;4.77;;
11771;SDS011;12556;55.748;13.194;2022-10-16T06:04:44;11.80;;;4.27;;
11771;SDS011;12556;55.748;13.194;2022-10-16T06:07:11;7.67;;;4.60;;
11771;SDS011;12556;55.748;13.194;2022-10-16T06:09:39;7.53;;;4.23;;
11771;SDS011;12556;55.748;13.194;2022-10-16T06:12:05;8.70;;;4.97;;
11771;SDS011;12556;55.748;13.194;2022-10-16T06:14:34;6.17;;;4.43;;
11771;SDS011;12556;55.748;13.194;2022-10-16T06:17:01;9.63;;;4.43;;
11771;SDS011;12556;55.748;13.194;2022-10-16T06:19:27;11.03;;;4.10;;
11771;SDS011;12556;55.748;13.194;2022-10-16T06:21:54;8.87;;;4.17;;
11771;SDS011;12556;55.748;13.194;2022-10-16T06:24:23;12.40;;;4.70;;
11771;SDS011;12556;55.748;13.194;2022-10-16T06:26:50;10.07;;;4.80;;
11771;SDS011;12556;55.748;13.194;2022-10-16T06:29:16;7.37;;;4.03;;
11771;SDS011;12556;55.748;13.194;2022-10-16T06:31:45;7.77;;;4.77;;
11771;SDS011;12556;55.748;13.194;2022-10-16T06:34:12;8.40;;;4.97;;
11771;SDS011;12556;55.748;13.194;2022-10-16T06:36:39;9.73;;;3.80;;
11771;SDS011;12556;55.748;13.194;2022-10-16T06:39:06;10.30;;;4.53;;
11771;SDS011;12556;55.748;13.194;2022-10-16T06:41:33;6.67;;;4.40;;
11771;SDS011;12556;55.748;13.194;2022-10-16T06:44:00;9.73;;;4.43;;
11771;SDS011;12556;55.748;13.194;2022-10-16T06:46:27;9.63;;;4.07;;
11771;SDS011;12556;55.748;13.194;2022-10-16T06:48:55;9.10;;;4.60;;
11771;SDS011;12556;55.748;13.194;2022-10-16T06:51:23;6.63;;;4.33;;
11771;SDS011;12556;55.748;13.194;2022-10-16T06:53:52;6.90;;;4.03;;
11771;SDS011;12556;55.748;13.194;2022-10-16T06:56:22;8.20;;;3.83;;
11771;SDS011;12556;55.748;13.194;2022-10-16T06:58:50;10.77;;;4.10;;
11771;SDS011;12556;55.748;13.194;2022-10-16T07:01:19;8.07;;;4.00;;
11771;SDS011;12556;55.748;13.194;2022-10-16T07:03:47;7.03;;;3.87;;
11771;SDS011;12556;55.748;13.194;2022-10-16T07:06:16;7.53;;;3.97;;
11771;SDS011;12556;55.748;13.194;2022-10-16T07:08:45;7.60;;;4.07;;
11771;SDS011;12556;55.748;13.194;2022-10-16T07:11:13;6.80;;;4.00;;
11771;SDS011;12556;55.748;13.194;2022-10-16T07:13:43;5.73;;;3.70;;
11771;SDS011;12556;55.748;13.194;2022-10-16T07:16:12;11.83;;;4.17;;
11771;SDS011;12556;55.748;13.194;2022-10-16T07:18:41;8.60;;;4.00;;
11771;SDS011;12556;55.748;13.194;2022-10-16T07:21:10;7.43;;;4.30;;
11771;SDS011;12556;55.748;13.194;2022-10-16T07:23:40;9.30;;;4.30;;
11771;SDS011;12556;55.748;13.194;2022-10-16T07:26:08;7.57;;;3.90;;
11771;SDS011;12556;55.748;13.194;2022-10-16T07:28:36;9.60;;;4.17;;
11771;SDS011;12556;55.748;13.194;2022-10-16T07:31:04;7.97;;;3.70;;
11771;SDS011;12556;55.748;13.194;2022-10-16T07:33:33;7.47;;;3.97;;
11771;SDS011;12556;55.748;13.194;2022-10-16T07:36:01;7.90;;;3.90;;
11771;SDS011;12556;55.748;13.194;2022-10-16T07:38:28;7.87;;;4.00;;
11771;SDS011;12556;55.748;13.194;2022-10-16T07:40:59;7.70;;;3.77;;
11771;SDS011;12556;55.748;13.194;2022-10-16T07:43:27;8.63;;;4.33;;
11771;SDS011;12556;55.748;13.194;2022-10-16T07:45:55;8.97;;;3.37;;
11771;SDS011;12556;55.748;13.194;2022-10-16T07:48:22;9.13;;;3.87;;
11771;SDS011;12556;55.748;13.194;2022-10-16T07:50:50;9.60;;;3.73;;
11771;SDS011;12556;55.748;13.194;2022-10-16T07:53:17;6.27;;;3.50;;
11771;SDS011;12556;55.748;13.194;2022-10-16T07:55:44;11.00;;;3.17;;
11771;SDS011;12556;55.748;13.194;2022-10-16T07:58:12;8.23;;;3.40;;
11771;SDS011;12556;55.748;13.194;2022-10-16T08:00:39;9.60;;;3.33;;
11771;SDS011;12556;55.748;13.194;2022-10-16T08:03:06;10.03;;;2.60;;
11771;SDS011;12556;55.748;13.194;2022-10-16T08:05:34;6.97;;;3.10;;
11771;SDS011;12556;55.748;13.194;2022-10-16T08:08:01;7.50;;;3.03;;
11771;SDS011;12556;55.748;13.194;2022-10-16T08:10:28;9.00;;;2.83;;
11771;SDS011;12556;55.748;13.194;2022-10-16T08:12:56;4.83;;;2.77;;
11771;SDS011;12556;55.748;13.194;2022-10-16T08:15:25;3.80;;;2.53;;
11771;SDS011;12556;55.748;13.194;2022-10-16T08:17:55;5.73;;;2.47;;
11771;SDS011;12556;55.748;13.194;2022-10-16T08:20:23;5.53;;;2.50;;
11771;SDS011;12556;55.748;13.194;2022-10-16T08:22:50;4.83;;;2.60;;
11771;SDS011;12556;55.748;13.194;2022-10-16T08:25:17;6.80;;;2.80;;
11771;SDS011;12556;55.748;13.194;2022-10-16T08:27:44;6.03;;;2.50;;
11771;SDS011;12556;55.748;13.194;2022-10-16T08:30:11;6.13;;;2.30;;
11771;SDS011;12556;55.748;13.194;2022-10-16T08:32:40;6.33;;;2.60;;
11771;SDS011;12556;55.748;13.194;2022-10-16T08:35:07;6.83;;;2.47;;
11771;SDS011;12556;55.748;13.194;2022-10-16T08:37:35;7.40;;;2.63;;
11771;SDS011;12556;55.748;13.194;2022-10-16T08:40:03;8.20;;;2.13;;
11771;SDS011;12556;55.748;13.194;2022-10-16T08:42:44;5.00;;;2.60;;
11771;SDS011;12556;55.748;13.194;2022-10-16T08:45:21;6.90;;;2.73;;
11771;SDS011;12556;55.748;13.194;2022-10-16T08:48:14;7.53;;;2.50;;
11771;SDS011;12556;55.748;13.194;2022-10-16T08:50:45;4.80;;;2.80;;
11771;SDS011;12556;55.748;13.194;2022-10-16T08:53:17;7.80;;;2.40;;
11771;SDS011;12556;55.748;13.194;2022-10-16T08:55:49;5.40;;;2.23;;
11771;SDS011;12556;55.748;13.194;2022-10-16T08:58:17;5.60;;;2.17;;
11771;SDS011;12556;55.748;13.194;2022-10-16T09:00:46;4.67;;;1.80;;
11771;SDS011;12556;55.748;13.194;2022-10-16T09:03:21;5.67;;;2.23;;
11771;SDS011;12556;55.748;13.194;2022-10-16T09:06:07;4.57;;;2.03;;
11771;SDS011;12556;55.748;13.194;2022-10-16T09:08:54;5.37;;;2.00;;
11771;SDS011;12556;55.748;13.194;2022-10-16T09:11:33;5.60;;;1.97;;
11771;SDS011;12556;55.748;13.194;2022-10-16T09:14:12;5.53;;;2.30;;
11771;SDS011;12556;55.748;13.194;2022-10-16T09:16:51;3.80;;;1.67;;
11771;SDS011;12556;55.748;13.194;2022-10-16T09:19:26;6.53;;;2.07;;
11771;SDS011;12556;55.748;13.194;2022-10-16T09:21:58;8.53;;;1.70;;
11771;SDS011;12556;55.748;13.194;2022-10-16T09:24:29;5.47;;;2.10;;
11771;SDS011;12556;55.748;13.194;2022-10-16T09:26:56;3.90;;;1.80;;
11771;SDS011;12556;55.748;13.194;2022-10-16T09:29:23;6.17;;;2.20;;
11771;SDS011;12556;55.748;13.194;2022-10-16T09:31:50;2.93;;;1.87;;
11771;SDS011;12556;55.748;13.194;2022-10-16T09:34:21;4.63;;;1.90;;
11771;SDS011;12556;55.748;13.194;2022-10-16T09:36:56;5.73;;;1.90;;
11771;SDS011;12556;55.748;13.194;2022-10-16T09:39:24;5.77;;;1.63;;
11771;SDS011;12556;55.748;13.194;2022-10-16T09:41:52;3.70;;;1.80;;
11771;SDS011;12556;55.748;13.194;2022-10-16T09:44:21;5.17;;;1.90;;
11771;SDS011;12556;55.748;13.194;2022-10-16T09:47:00;6.30;;;1.70;;
11771;SDS011;12556;55.748;13.194;2022-10-16T09:49:29;5.93;;;2.23;;
11771;SDS011;12556;55.748;13.194;2022-10-16T09:52:03;6.37;;;2.17;;
11771;SDS011;12556;55.748;13.194;2022-10-16T09:54:31;7.83;;;2.40;;
11771;SDS011;12556;55.748;13.194;2022-10-16T09:57:04;7.17;;;1.80;;
11771;SDS011;12556;55.748;13.194;2022-10-16T09:59:32;3.57;;;1.50;;
11771;SDS011;12556;55.748;13.194;2022-10-16T10:02:01;3.03;;;1.70;;
11771;SDS011;12556;55.748;13.194;2022-10-16T10:04:38;4.17;;;1.80;;
11771;SDS011;12556;55.748;13.194;2022-10-16T10:07:14;3.57;;;1.70;;
11771;SDS011;12556;55.748;13.194;2022-10-16T10:09:44;6.63;;;1.60;;
11771;SDS011;12556;55.748;13.194;2022-10-16T10:12:19;3.73;;;1.60;;
11771;SDS011;12556;55.748;13.194;2022-10-16T10:14:48;3.37;;;1.57;;
11771;SDS011;12556;55.748;13.194;2022-10-16T10:17:17;5.70;;;1.27;;
11771;SDS011;12556;55.748;13.194;2022-10-16T10:19:48;1.80;;;1.40;;
11771;SDS011;12556;55.748;13.194;2022-10-16T10:22:18;5.07;;;1.30;;
11771;SDS011;12556;55.748;13.194;2022-10-16T10:24:54;5.37;;;1.87;;
11771;SDS011;12556;55.748;13.194;2022-10-16T10:27:38;3.37;;;1.60;;
11771;SDS011;12556;55.748;13.194;2022-10-16T10:30:14;4.27;;;1.47;;
11771;SDS011;12556;55.748;13.194;2022-10-16T10:32:47;3.80;;;1.50;;
11771;SDS011;12556;55.748;13.194;2022-10-16T10:35:29;2.70;;;1.58;;
11771;SDS011;12556;55.748;13.194;2022-10-16T10:38:09;3.70;;;1.30;;
11771;SDS011;12556;55.748;13.194;2022-10-16T10:40:49;4.30;;;1.40;;
11771;SDS011;12556;55.748;13.194;2022-10-16T10:43:28;6.30;;;1.93;;
11771;SDS011;12556;55.748;13.194;2022-10-16T10:46:05;7.33;;;1.90;;
11771;SDS011;12556;55.748;13.194;2022-10-16T10:48:54;4.33;;;1.47;;
11771;SDS011;12556;55.748;13.194;2022-10-16T10:51:38;3.40;;;1.27;;
11771;SDS011;12556;55.748;13.194;2022-10-16T10:54:14;4.73;;;1.43;;
11771;SDS011;12556;55.748;13.194;2022-10-16T10:56:47;3.37;;;1.77;;
11771;SDS011;12556;55.748;13.194;2022-10-16T10:59:31;3.77;;;1.50;;
11771;SDS011;12556;55.748;13.194;2022-10-16T11:02:09;3.60;;;1.80;;
11771;SDS011;12556;55.748;13.194;2022-10-16T11:07:43;3.92;;;1.83;;
11771;SDS011;12556;55.748;13.194;2022-10-16T11:10:16;4.70;;;1.50;;
11771;SDS011;12556;55.748;13.194;2022-10-16T11:12:48;4.82;;;1.55;;
11771;SDS011;12556;55.748;13.194;2022-10-16T11:15:19;9.77;;;1.70;;
11771;SDS011;12556;55.748;13.194;2022-10-16T11:17:52;5.03;;;1.40;;
11771;SDS011;12556;55.748;13.194;2022-10-16T11:20:24;5.18;;;1.67;;
11771;SDS011;12556;55.748;13.194;2022-10-16T11:22:54;6.75;;;1.55;;
11771;SDS011;12556;55.748;13.194;2022-10-16T11:25:25;5.55;;;1.70;;
11771;SDS011;12556;55.748;13.194;2022-10-16T11:27:55;5.55;;;2.03;;
11771;SDS011;12556;55.748;13.194;2022-10-16T11:30:28;5.20;;;1.60;;
11771;SDS011;12556;55.748;13.194;2022-10-16T11:33:02;4.80;;;1.77;;
11771;SDS011;12556;55.748;13.194;2022-10-16T11:35:38;3.90;;;1.52;;
11771;SDS011;12556;55.748;13.194;2022-10-16T11:38:12;3.92;;;1.50;;
11771;SDS011;12556;55.748;13.194;2022-10-16T11:40:45;3.90;;;1.73;;
11771;SDS011;12556;55.748;13.194;2022-10-16T11:43:19;4.30;;;1.70;;
11771;SDS011;12556;55.748;13.194;2022-10-16T11:45:51;7.65;;;2.17;;
11771;SDS011;12556;55.748;13.194;2022-10-16T11:48:23;8.20;;;1.90;;
11771;SDS011;12556;55.748;13.194;2022-10-16T11:50:54;5.07;;;1.48;;
11771;SDS011;12556;55.748;13.194;2022-10-16T11:53:31;4.63;;;2.00;;
11771;SDS011;12556;55.748;13.194;2022-10-16T11:56:11;4.55;;;1.92;;
11771;SDS011;12556;55.748;13.194;2022-10-16T11:58:41;5.63;;;1.70;;
11771;SDS011;12556;55.748;13.194;2022-10-16T12:01:18;5.28;;;2.05;;
11771;SDS011;12556;55.748;13.194;2022-10-16T12:03:56;3.08;;;1.60;;
11771;SDS011;12556;55.748;13.194;2022-10-16T12:06:40;3.33;;;1.65;;
11771;SDS011;12556;55.748;13.194;2022-10-16T12:09:13;5.75;;;2.10;;
11771;SDS011;12556;55.748;13.194;2022-10-16T12:11:46;3.85;;;1.80;;
11771;SDS011;12556;55.748;13.194;2022-10-16T12:14:20;3.28;;;1.60;;
11771;SDS011;12556;55.748;13.194;2022-10-16T12:17:00;6.10;;;1.80;;
11771;SDS011;12556;55.748;13.194;2022-10-16T12:19:30;3.67;;;1.80;;
11771;SDS011;12556;55.748;13.194;2022-10-16T12:21:59;4.38;;;1.73;;
11771;SDS011;12556;55.748;13.194;2022-10-16T12:24:34;3.40;;;1.48;;
11771;SDS011;12556;55.748;13.194;2022-10-16T12:27:03;3.45;;;1.67;;
11771;SDS011;12556;55.748;13.194;2022-10-16T12:29:35;4.28;;;1.50;;
11771;SDS011;12556;55.748;13.194;2022-10-16T12:32:05;3.47;;;1.98;;
11771;SDS011;12556;55.748;13.194;2022-10-16T12:34:46;6.70;;;1.70;;
11771;SDS011;12556;55.748;13.194;2022-10-16T12:37:14;4.82;;;1.83;;
11771;SDS011;12556;55.748;13.194;2022-10-16T12:39:49;7.17;;;1.70;;
11771;SDS011;12556;55.748;13.194;2022-10-16T12:42:31;4.13;;;1.63;;
11771;SDS011;12556;55.748;13.194;2022-10-16T12:45:00;5.53;;;1.57;;
11771;SDS011;12556;55.748;13.194;2022-10-16T12:47:37;5.23;;;1.90;;
11771;SDS011;12556;55.748;13.194;2022-10-16T12:50:25;6.73;;;2.00;;
11771;SDS011;12556;55.748;13.194;2022-10-16T12:52:53;3.03;;;1.90;;
11771;SDS011;12556;55.748;13.194;2022-10-16T12:55:22;4.00;;;1.50;;
11771;SDS011;12556;55.748;13.194;2022-10-16T12:58:15;7.20;;;1.60;;
11771;SDS011;12556;55.748;13.194;2022-10-16T13:01:02;8.47;;;1.90;;
11771;SDS011;12556;55.748;13.194;2022-10-16T13:03:47;5.27;;;2.23;;
11771;SDS011;12556;55.748;13.194;2022-10-16T13:06:29;5.30;;;2.00;;
11771;SDS011;12556;55.748;13.194;2022-10-16T13:09:10;5.13;;;2.30;;
11771;SDS011;12556;55.748;13.194;2022-10-16T13:11:55;4.77;;;1.83;;
11771;SDS011;12556;55.748;13.194;2022-10-16T13:14:45;9.67;;;2.27;;
11771;SDS011;12556;55.748;13.194;2022-10-16T13:17:24;5.87;;;1.90;;
11771;SDS011;12556;55.748;13.194;2022-10-16T13:20:00;6.33;;;2.10;;
11771;SDS011;12556;55.748;13.194;2022-10-16T13:22:38;4.57;;;1.87;;
11771;SDS011;12556;55.748;13.194;2022-10-16T13:25:18;8.37;;;2.07;;
11771;SDS011;12556;55.748;13.194;2022-10-16T13:27:54;4.57;;;1.90;;
11771;SDS011;12556;55.748;13.194;2022-10-16T13:30:23;7.00;;;1.67;;
11771;SDS011;12556;55.748;13.194;2022-10-16T13:32:54;5.70;;;2.50;;
11771;SDS011;12556;55.748;13.194;2022-10-16T13:35:26;7.20;;;2.57;;
11771;SDS011;12556;55.748;13.194;2022-10-16T13:38:05;7.33;;;2.20;;
11771;SDS011;12556;55.748;13.194;2022-10-16T13:40:47;8.40;;;2.20;;
11771;SDS011;12556;55.748;13.194;2022-10-16T13:43:21;9.03;;;3.00;;
11771;SDS011;12556;55.748;13.194;2022-10-16T13:45:57;7.50;;;2.37;;
11771;SDS011;12556;55.748;13.194;2022-10-16T13:48:26;5.17;;;1.93;;
11771;SDS011;12556;55.748;13.194;2022-10-16T13:51:05;9.23;;;2.40;;
11771;SDS011;12556;55.748;13.194;2022-10-16T13:53:37;10.70;;;2.60;;
11771;SDS011;12556;55.748;13.194;2022-10-16T13:56:07;6.63;;;2.43;;
11771;SDS011;12556;55.748;13.194;2022-10-16T13:58:38;9.10;;;2.40;;
11771;SDS011;12556;55.748;13.194;2022-10-16T14:01:06;10.47;;;2.73;;
11771;SDS011;12556;55.748;13.194;2022-10-16T14:03:43;8.00;;;2.77;;
11771;SDS011;12556;55.748;13.194;2022-10-16T14:06:12;9.73;;;2.30;;
11771;SDS011;12556;55.748;13.194;2022-10-16T14:08:42;5.73;;;2.37;;
11771;SDS011;12556;55.748;13.194;2022-10-16T14:11:11;8.83;;;2.23;;
11771;SDS011;12556;55.748;13.194;2022-10-16T14:13:42;11.27;;;2.97;;
11771;SDS011;12556;55.748;13.194;2022-10-16T14:16:16;8.00;;;2.30;;
11771;SDS011;12556;55.748;13.194;2022-10-16T14:18:46;7.10;;;2.70;;
11771;SDS011;12556;55.748;13.194;2022-10-16T14:21:20;12.47;;;2.47;;
11771;SDS011;12556;55.748;13.194;2022-10-16T14:23:46;10.50;;;2.60;;
11771;SDS011;12556;55.748;13.194;2022-10-16T14:26:14;8.73;;;2.57;;
11771;SDS011;12556;55.748;13.194;2022-10-16T14:28:45;6.27;;;2.47;;
11771;SDS011;12556;55.748;13.194;2022-10-16T14:31:26;9.07;;;2.57;;
11771;SDS011;12556;55.748;13.194;2022-10-16T14:33:55;7.33;;;2.67;;
11771;SDS011;12556;55.748;13.194;2022-10-16T14:36:22;12.87;;;2.77;;
11771;SDS011;12556;55.748;13.194;2022-10-16T14:38:54;7.83;;;2.50;;
11771;SDS011;12556;55.748;13.194;2022-10-16T14:41:25;10.23;;;2.77;;
11771;SDS011;12556;55.748;13.194;2022-10-16T14:43:55;6.13;;;2.67;;
11771;SDS011;12556;55.748;13.194;2022-10-16T14:46:28;10.20;;;3.00;;
11771;SDS011;12556;55.748;13.194;2022-10-16T14:49:00;12.33;;;2.20;;
11771;SDS011;12556;55.748;13.194;2022-10-16T14:51:30;10.53;;;2.57;;
11771;SDS011;12556;55.748;13.194;2022-10-16T14:53:57;12.70;;;2.60;;